Latest Weather Observations for Mount Boyce

IDN60801

Issued at 5:12 pm EST Wednesday 28 September 2022 (issued every 10 minutes, with the page automatically refreshed every 10 minutes)

About weather observations | Map of weather stations | Latest weather observations for NSW | Other Formats
Station Details ID: 063292 Name: MOUNT BOYCE AWS Lat: -33.62 Lon: 150.27 Height: 1080.0 m
Data from the previous 72 hours. | See also: Recent months at Mount Boyce
Date/Time
EST
Temp
°C
App
Temp
°C
Dew
Point
°C
Rel
Hum
%
Delta-T
°C
Wind Press
QNH
hPa
Press
MSL
hPa
Rain since
9am
mm
Dir  Spd
km/h
Gust
km/h
Spd
kts
Gust
kts
28/05:00pm 11.7 9.6 5.8 67 2.9 SSE 6 13 3 7 - - 0.2
28/04:30pm 12.3 9.0 4.5 59 3.8 W 11 15 6 8 - - 0.2
28/04:00pm 13.1 9.0 2.1 47 5.1 WNW 13 20 7 11 - - 0.2
28/03:30pm 13.2 9.8 3.8 53 4.5 W 11 17 6 9 - - 0.2
28/03:00pm 12.0 8.5 3.3 55 4.1 W 11 15 6 8 - - 0.2
28/02:30pm 12.1 8.5 3.1 54 4.2 W 11 17 6 9 - - 0.2
28/02:00pm 12.0 8.1 3.3 55 4.1 W 13 20 7 11 - - 0.2
28/01:30pm 13.3 9.0 3.4 51 4.7 W 15 24 8 13 - - 0.2
28/01:00pm 13.0 8.6 2.8 50 4.8 W 15 20 8 11 - - 0.2
28/12:30pm 13.2 8.7 4.4 55 4.3 W 17 30 9 16 - - 0.2
28/12:00pm 12.4 8.5 3.6 55 4.2 W 13 20 7 11 - - 0.2
28/11:30am 11.9 7.7 3.7 57 3.9 W 15 22 8 12 - - 0.2
28/11:00am 11.5 7.8 4.5 62 3.4 W 13 20 7 11 - - 0.2
28/10:30am 10.8 6.9 5.3 69 2.7 WSW 15 24 8 13 - - 0.0
28/10:00am 10.4 6.5 5.4 71 2.4 W 15 22 8 12 - - 0.0
28/09:30am 9.2 4.9 5.4 77 1.8 W 17 24 9 13 - - 0.0
28/09:00am 9.0 5.7 6.4 84 1.3 WSW 13 20 7 11 - - 33.0
28/08:30am 8.0 4.4 6.8 92 0.6 W 15 19 8 10 - - 33.0
28/08:20am 7.8 4.2 6.9 94 0.4 WNW 15 20 8 11 - - 33.0
28/08:00am 7.2 4.1 7.1 99 0.0 W 13 20 7 11 - - 33.0
28/07:56am 7.2 3.7 7.1 99 0.0 W 15 20 8 11 - - 33.0
28/07:32am 7.2 3.7 7.1 99 0.0 W 15 20 8 11 - - 33.0
28/07:30am 7.2 3.7 7.1 99 0.0 W 15 20 8 11 - - 33.0
28/07:28am 7.2 4.1 7.1 99 0.0 W 13 19 7 10 - - 33.0
28/07:26am 7.1 3.9 7.0 99 0.0 W 13 19 7 10 - - 33.0
28/07:19am 6.9 3.7 6.8 99 0.0 W 13 19 7 10 - - 33.0
28/07:00am 6.9 4.1 6.8 99 0.0 WNW 11 15 6 8 - - 33.0
28/06:30am 7.3 4.6 7.2 99 0.0 WSW 11 19 6 10 - - 33.0
28/06:00am 7.2 6.1 7.1 99 0.0 WSW 2 11 1 6 - - 33.0
28/05:30am 7.3 4.9 7.2 99 0.0 N 9 20 5 11 - - 33.0
28/05:00am 7.5 4.8 7.4 99 0.0 WSW 11 15 6 8 - - 33.0
28/04:44am 7.4 5.1 7.3 99 0.0 W 9 13 5 7 - - 33.0
28/04:30am 7.4 5.4 7.3 99 0.0 ENE 7 11 4 6 - - 33.0
28/04:06am 7.5 6.5 7.4 99 0.0 NNW 2 9 1 5 - - 33.0
28/04:00am 7.6 5.9 7.5 99 0.0 NNW 6 9 3 5 - - 33.0
28/03:55am 7.6 5.7 7.5 99 0.0 NNW 7 11 4 6 - - 33.0
28/03:46am 7.8 5.6 7.7 99 0.1 NNW 9 11 5 6 - - 33.0
28/03:30am 7.5 5.2 7.4 99 0.0 WNW 9 13 5 7 - - 33.0
28/03:01am 7.5 5.1 7.1 97 0.2 W 9 13 5 7 - - 32.8
28/03:00am 7.5 5.1 7.1 97 0.2 W 9 13 5 7 - - 32.8
28/02:52am 7.9 6.6 7.5 97 0.2 NNW 4 11 2 6 - - 32.8
28/02:30am 8.3 7.5 8.0 98 0.2 WSW 2 6 1 3 - - 32.8
28/02:00am 8.1 7.2 7.7 97 0.2 NW 2 7 1 4 - - 32.8
28/01:30am 8.1 7.6 7.8 98 0.2 CALM 0 0 0 0 - - 32.8
28/01:00am 8.3 6.7 8.0 98 0.2 N 6 9 3 5 - - 32.8
28/12:41am 8.2 6.6 7.9 98 0.2 NNW 6 9 3 5 - - 32.6
28/12:30am 8.2 6.4 7.8 97 0.2 N 7 17 4 9 - - 32.6
28/12:00am 8.2 5.9 7.6 96 0.3 NNE 9 13 5 7 - - 31.2
 
Date/Time
EST
Temp
°C
App
Temp
°C
Dew
Point
°C
Rel
Hum
%
Delta-T
°C
Wind Press
QNH
hPa
Press
MSL
hPa
Rain since
9am
mm
Dir  Spd
km/h
Gust
km/h
Spd
kts
Gust
kts
27/11:45pm 8.0 6.1 7.6 97 0.2 N 7 13 4 7 - - 30.4
27/11:30pm 7.3 4.1 6.7 96 0.3 W 13 26 7 14 - - 28.8
27/11:29pm 7.3 3.7 6.7 96 0.3 WNW 15 26 8 14 - - 28.8
27/11:13pm 8.5 5.7 8.4 99 0.1 W 13 19 7 10 - - 21.6
27/11:00pm 8.8 7.8 8.7 99 0.1 N 4 13 2 7 - - 16.4
27/10:46pm 8.8 6.4 8.7 99 0.1 ENE 11 22 6 12 - - 15.0
27/10:30pm 8.5 7.3 8.2 98 0.2 E 4 9 2 5 - - 11.8
27/10:00pm 10.2 10.3 10.1 99 0.1 CALM 0 0 0 0 - - 5.0
27/09:37pm 10.1 8.8 10.0 99 0.1 WNW 7 19 4 10 - - 4.8
27/09:30pm 10.1 9.0 10.0 99 0.1 ENE 6 17 3 9 - - 4.8
27/09:00pm 10.2 8.2 10.1 99 0.1 ENE 11 17 6 9 - - 4.8
27/08:30pm 10.3 8.3 10.1 99 0.1 ENE 11 19 6 10 - - 4.6
27/08:00pm 10.6 8.7 10.4 99 0.1 ENE 11 17 6 9 - - 4.6
27/07:30pm 10.0 7.5 9.7 98 0.2 ENE 13 20 7 11 - - 4.6
27/07:29pm 9.9 7.4 9.6 98 0.2 ENE 13 20 7 11 - - 4.6
27/07:25pm 9.7 7.5 9.2 97 0.3 ENE 11 19 6 10 - - 4.6
27/07:18pm 9.5 7.2 8.9 96 0.3 ENE 11 17 6 9 - - 4.6
27/07:00pm 9.6 7.2 8.7 94 0.5 NE 11 15 6 8 - - 4.6
27/06:45pm 10.0 7.7 9.1 94 0.5 NE 11 17 6 9 - - 4.6
27/06:30pm 10.4 8.6 9.5 94 0.5 ENE 9 11 5 6 - - 4.6
27/06:28pm 10.4 9.0 9.5 94 0.5 ENE 7 11 4 6 - - 4.6
27/06:27pm 10.5 9.1 9.6 94 0.5 ENE 7 11 4 6 - - 4.6
27/06:06pm 11.2 8.7 9.8 91 0.8 NE 13 22 7 12 - - 3.4
27/06:00pm 11.6 9.6 10.0 90 0.9 ENE 11 17 6 9 - - 1.6
27/05:55pm 11.7 10.0 9.9 89 1.0 ENE 9 15 5 8 - - 1.6
27/05:30pm 12.1 10.3 9.5 84 1.4 NE 9 13 5 7 - - 1.6
27/05:00pm 14.0 13.8 9.2 73 2.6 CALM 0 0 0 0 - - 1.6
27/04:30pm 14.4 12.8 7.9 65 3.4 NNE 6 9 3 5 - - 1.6
27/04:00pm 13.8 12.0 9.5 75 2.3 NNW 9 22 5 12 - - 1.6
27/03:48pm 13.2 11.9 9.8 80 1.8 N 7 17 4 9 - - 1.6
27/03:30pm 12.4 9.2 6.7 68 2.9 NNW 13 33 7 18 - - 1.6
27/03:28pm 12.7 9.4 6.5 66 3.1 NNW 13 33 7 18 - - 1.4
27/03:00pm 16.4 15.0 9.6 64 3.7 NW 7 15 4 8 - - 0.6
27/02:30pm 16.7 15.3 8.7 59 4.3 WNW 6 17 3 9 - - 0.6
27/02:00pm 13.2 9.7 7.4 68 3.0 WSW 15 30 8 16 - - 0.6
27/01:33pm 16.6 13.6 9.1 61 4.1 WNW 15 30 8 16 - - 0.6
27/01:30pm 17.0 14.3 8.9 59 4.4 WNW 13 30 7 16 - - 0.6
27/01:00pm 15.8 13.0 8.5 62 3.9 N 13 26 7 14 - - 0.6
27/12:30pm 14.3 11.1 8.3 67 3.2 WNW 15 24 8 13 - - 0.6
27/12:00pm 13.2 10.3 8.1 71 2.7 WNW 13 24 7 13 - - 0.6
27/11:30am 13.1 9.8 8.2 72 2.6 W 15 22 8 12 - - 0.6
27/11:00am 11.6 8.2 7.5 76 2.1 W 15 24 8 13 - - 0.6
27/10:30am 11.2 8.3 8.1 81 1.6 WNW 13 22 7 12 - - 0.6
27/10:00am 10.3 7.8 8.4 88 1.0 W 11 15 6 8 - - 0.6
27/09:47am 9.6 7.6 8.5 93 0.6 W 9 15 5 8 - - 0.6
27/09:41am 9.5 6.7 8.7 95 0.4 W 13 20 7 11 - - 0.6
27/09:30am 8.9 5.3 8.5 97 0.2 WSW 17 30 9 16 - - 0.6
27/09:13am 9.2 5.0 8.1 93 0.6 W 20 32 11 17 - - 0.6
27/09:08am 9.9 6.7 8.5 91 0.7 WNW 15 32 8 17 - - 0.4
27/09:00am 10.3 8.3 8.7 90 0.8 WNW 9 17 5 9 - - 1.2
27/08:30am 10.7 8.8 9.0 89 0.9 NNE 9 20 5 11 - - 1.2
27/08:00am 9.9 7.5 8.5 91 0.7 NE 11 19 6 10 - - 1.2
27/07:30am 9.4 7.7 8.2 92 0.6 NNE 7 17 4 9 - - 1.0
27/07:00am 9.2 6.6 7.6 90 0.8 NNE 11 19 6 10 - - 1.0
27/06:49am 9.2 6.2 7.6 90 0.8 NNE 13 24 7 13 - - 1.0
27/06:30am 8.7 5.6 7.2 90 0.8 WNW 13 24 7 13 - - 0.8
27/06:26am 8.8 5.7 7.1 89 0.8 WNW 13 24 7 13 - - 0.8
27/06:00am 9.5 6.3 6.8 83 1.3 WNW 13 28 7 15 - - 0.2
27/05:30am 8.6 6.3 5.7 82 1.4 NW 7 17 4 9 - - 0.2
27/05:00am 8.9 6.4 4.9 76 1.9 WNW 7 13 4 7 - - 0.0
27/04:30am 9.6 7.0 4.2 69 2.5 NW 7 11 4 6 - - 0.0
27/04:00am 9.4 7.7 4.0 69 2.5 WNW 2 7 1 4 - - 0.0
27/03:30am 9.7 7.2 4.7 71 2.4 NW 7 9 4 5 - - 0.0
27/03:00am 8.8 6.5 5.0 77 1.8 WNW 6 13 3 7 - - 0.0
27/02:30am 8.5 6.0 4.5 76 1.9 NW 7 9 4 5 - - 0.0
27/02:00am 9.4 6.1 2.5 62 3.1 W 9 13 5 7 - - 0.0
27/01:30am 9.1 5.8 2.2 62 3.1 W 9 11 5 6 - - 0.0
27/01:00am 9.1 6.1 2.2 62 3.1 WNW 7 11 4 6 - - 0.0
27/12:30am 9.2 6.4 1.9 60 3.3 WNW 6 9 3 5 - - 0.0
27/12:00am 9.4 6.3 1.3 57 3.6 WSW 7 11 4 6 - - 0.0
 
Date/Time
EST
Temp
°C
App
Temp
°C
Dew
Point
°C
Rel
Hum
%
Delta-T
°C
Wind Press
QNH
hPa
Press
MSL
hPa
Rain since
9am
mm
Dir  Spd
km/h
Gust
km/h
Spd
kts
Gust
kts
26/11:30pm 9.4 6.5 1.3 57 3.6 NW 6 9 3 5 - - 0.0
26/11:00pm 9.3 6.0 0.0 52 4.0 W 7 9 4 5 - - 0.0
26/10:30pm 9.1 5.5 0.8 56 3.6 WNW 9 11 5 6 - - 0.0
26/10:00pm 9.3 6.0 0.0 52 4.0 W 7 9 4 5 - - 0.0
26/09:30pm 10.0 7.0 1.9 57 3.6 WNW 7 11 4 6 - - 0.0
26/09:00pm 9.6 7.6 0.0 51 4.1 CALM 0 0 0 0 - - 0.0
26/08:30pm 9.5 6.1 -0.4 50 4.2 WSW 7 11 4 6 - - 0.0
26/08:00pm 9.2 5.9 0.4 54 3.8 W 7 9 4 5 - - 0.0
26/07:30pm 9.9 6.3 0.5 52 4.1 WNW 9 13 5 7 - - 0.0
26/07:00pm 9.4 6.3 0.1 52 4.0 W 6 9 3 5 - - 0.0
26/06:30pm 9.9 6.1 -0.9 47 4.5 W 9 15 5 8 - - 0.0
26/06:00pm 10.6 6.7 -1.4 43 5.0 WNW 9 13 5 7 - - 0.0
26/05:30pm 11.3 7.2 -2.8 37 5.8 WNW 9 17 5 9 - - 0.0
26/05:00pm 11.5 7.7 -3.8 34 6.1 WNW 7 11 4 6 - - 0.0
26/04:30pm 11.9 7.3 -4.2 32 6.4 W 11 17 6 9 - - 0.0
26/04:00pm 13.4 8.7 -5.2 27 7.4 W 11 17 6 9 - - 0.0
26/03:30pm 16.4 12.8 2.8 40 6.6 WNW 11 19 6 10 - - 0.0
26/03:00pm 15.1 11.4 2.6 43 5.9 WSW 11 20 6 11 - - 0.0
26/02:30pm 14.8 10.8 4.8 51 5.0 WSW 15 20 8 11 - - 0.0
26/02:00pm 14.8 12.2 5.9 55 4.5 WSW 9 20 5 11 - - 0.0
26/01:30pm 14.4 11.1 2.6 45 5.6 W 9 20 5 11 - - 0.0
26/01:00pm 14.0 11.6 5.1 55 4.4 WNW 7 13 4 7 - - 0.0
26/12:30pm 12.5 9.9 6.3 66 3.1 W 9 13 5 7 - - 0.0
26/12:00pm 12.9 11.9 5.6 61 3.6 CALM 0 7 0 4 - - 0.0
26/11:30am 12.7 10.6 6.5 66 3.1 NW 7 11 4 6 - - 0.0
26/11:00am 11.2 8.7 6.7 74 2.3 NE 9 17 5 9 - - 0.0
26/10:30am 10.6 8.6 7.1 79 1.8 ENE 7 15 4 8 - - 0.0
26/10:00am 9.8 7.4 7.2 84 1.3 NE 9 17 5 9 - - 0.0
26/09:30am 9.3 6.9 7.1 86 1.1 NE 9 17 5 9 - - 0.0
26/09:15am 9.1 6.2 6.7 85 1.2 NE 11 19 6 10 - - 0.0
26/09:00am 9.0 7.0 7.1 88 1.0 NE 7 15 4 8 - - 0.2
26/08:30am 8.4 5.9 6.5 88 0.9 NE 9 20 5 11 - - 0.2
26/08:00am 8.5 5.7 7.0 90 0.7 NE 11 20 6 11 - - 0.2
26/07:30am 7.7 5.3 7.0 95 0.3 ENE 9 15 5 8 - - 0.2
26/07:09am 6.8 3.7 5.7 93 0.5 ENE 11 17 6 9 - - 0.2
26/07:07am 6.8 3.7 5.7 93 0.5 ENE 11 17 6 9 - - 0.2
26/07:00am 6.5 3.7 5.3 92 0.6 ENE 9 17 5 9 - - 0.2
26/06:30am 5.9 3.3 4.4 90 0.7 ENE 7 9 4 5 - - 0.2
26/06:00am 5.2 2.0 2.9 85 1.0 ENE 9 13 5 7 - - 0.2
26/05:56am 5.1 2.2 2.8 85 1.0 ENE 7 13 4 7 - - 0.2
26/05:30am 5.0 2.0 2.2 82 1.2 ENE 7 11 4 6 - - 0.2
26/05:00am 5.3 3.6 1.8 78 1.5 CALM 0 2 0 1 - - 0.2
26/04:30am 5.2 3.6 2.7 84 1.1 CALM 0 0 0 0 - - 0.2
26/04:00am 5.0 3.3 2.0 81 1.3 CALM 0 0 0 0 - - 0.2
26/03:30am 5.3 3.7 2.7 83 1.1 CALM 0 0 0 0 - - 0.2
26/03:00am 5.1 3.5 2.3 82 1.2 CALM 0 0 0 0 - - 0.2
26/02:30am 5.5 3.9 2.3 80 1.4 CALM 0 0 0 0 - - 0.2
26/02:00am 6.0 4.3 1.9 75 1.8 CALM 0 0 0 0 - - 0.2
26/01:30am 6.2 4.6 2.7 78 1.5 CALM 0 0 0 0 - - 0.2
26/01:00am 5.5 2.5 2.2 79 1.4 W 7 7 4 4 - - 0.2
26/12:30am 5.5 1.9 2.7 82 1.2 W 11 13 6 7 - - 0.2
26/12:00am 5.8 2.1 2.4 79 1.5 W 11 13 6 7 - - 0.2
 
Date/Time
EST
Temp
°C
App
Temp
°C
Dew
Point
°C
Rel
Hum
%
Delta-T
°C
Wind Press
QNH
hPa
Press
MSL
hPa
Rain since
9am
mm
Dir  Spd
km/h
Gust
km/h
Spd
kts
Gust
kts
25/11:30pm 6.2 2.9 2.5 77 1.6 WSW 9 13 5 7 - - 0.2
25/11:00pm 5.9 3.5 2.0 76 1.7 WSW 4 9 2 5 - - 0.2
25/10:30pm 6.3 1.7 1.8 73 1.9 WSW 15 19 8 10 - - 0.2
25/10:00pm 7.0 2.4 1.5 68 2.4 W 15 19 8 10 - - 0.2
25/09:30pm 7.6 3.7 1.2 64 2.8 WSW 11 15 6 8 - - 0.2
25/09:00pm 8.4 4.5 0.9 59 3.2 WSW 11 13 6 7 - - 0.2
25/08:30pm 8.6 4.7 1.1 59 3.3 W 11 15 6 8 - - 0.2
25/08:00pm 8.8 4.9 1.0 58 3.4 W 11 15 6 8 - - 0.2
25/07:30pm 9.6 5.6 0.5 53 3.9 WSW 11 15 6 8 - - 0.2
25/07:00pm 9.8 6.2 0.4 52 4.1 W 9 13 5 7 - - 0.2
25/06:30pm 10.2 6.6 0.5 51 4.2 W 9 13 5 7 - - 0.2
25/06:00pm 10.9 7.1 1.7 53 4.1 W 11 17 6 9 - - 0.2
25/05:30pm 11.8 7.1 1.2 48 4.8 W 15 26 8 14 - - 0.2

Other formats

Comma delimited format used in spreadsheet applications
http://www.bom.gov.au/fwo/IDN60801/IDN60801.94743.axf

JavaScript Object Notation format (JSON) in row-major order
http://www.bom.gov.au/fwo/IDN60801/IDN60801.94743.json

Data quality

Most of these data are generated automatically and are frequently updated. Quality checks on data are not normally performed. It is possible for incorrect values to appear. Refer to information at About Latest Weather Observations and please check the disclaimer before using these data.